createdAt,value
2022-11-25T00:01:36.511Z,2.36
2022-11-25T00:04:08.850Z,2.35
2022-11-25T00:06:36.214Z,2.32
2022-11-25T00:09:08.359Z,2.31
2022-11-25T00:11:42.987Z,2.43
2022-11-25T00:14:15.001Z,2.27
2022-11-25T00:16:48.441Z,2.34
2022-11-25T00:19:15.805Z,2.37
2022-11-25T00:21:42.630Z,2.38
2022-11-25T00:24:09.332Z,2.39
2022-11-25T00:26:38.442Z,2.45
2022-11-25T00:29:08.838Z,2.44
2022-11-25T00:31:37.738Z,2.40
2022-11-25T00:34:08.216Z,2.38
2022-11-25T00:36:37.259Z,2.45
2022-11-25T00:39:05.272Z,2.55
2022-11-25T00:41:50.606Z,2.54
2022-11-25T00:44:38.652Z,2.54
2022-11-25T00:47:15.881Z,2.56
2022-11-25T00:49:44.746Z,2.55
2022-11-25T00:52:15.321Z,2.57
2022-11-25T00:54:42.152Z,2.52
2022-11-25T00:57:08.753Z,2.50
2022-11-25T00:59:35.357Z,2.50
2022-11-25T01:02:02.023Z,2.50
2022-11-25T01:04:28.750Z,2.59
2022-11-25T01:06:56.837Z,2.55
2022-11-25T01:09:23.611Z,2.53
2022-11-25T01:11:51.400Z,2.41
2022-11-25T01:14:18.828Z,2.35
2022-11-25T01:16:45.506Z,2.51
2022-11-25T01:19:12.563Z,2.40
2022-11-25T01:21:39.400Z,2.33
2022-11-25T01:24:06.550Z,2.24
2022-11-25T01:26:34.875Z,2.18
2022-11-25T01:29:04.113Z,2.16
2022-11-25T01:31:33.441Z,2.15
2022-11-25T01:34:05.997Z,2.16
2022-11-25T01:36:32.629Z,2.16
2022-11-25T01:39:00.382Z,2.21
2022-11-25T01:41:29.425Z,2.31
2022-11-25T01:44:09.653Z,2.38
2022-11-25T01:47:01.419Z,2.30
2022-11-25T01:49:39.924Z,2.25
2022-11-25T01:52:11.517Z,2.21
2022-11-25T01:54:59.833Z,2.11
2022-11-25T01:57:35.544Z,2.14
2022-11-25T02:00:04.124Z,2.14
2022-11-25T02:02:31.300Z,2.20
2022-11-25T02:04:58.710Z,2.26
2022-11-25T02:07:27.779Z,2.21
2022-11-25T02:09:55.789Z,2.29
2022-11-25T02:12:22.776Z,2.20
2022-11-25T02:14:51.232Z,2.21
2022-11-25T02:17:17.962Z,2.19
2022-11-25T02:20:05.275Z,2.25
2022-11-25T02:22:41.996Z,2.27
2022-11-25T02:25:30.098Z,2.26
2022-11-25T02:28:01.285Z,2.26
2022-11-25T02:30:27.869Z,2.26
2022-11-25T02:32:54.511Z,2.23
2022-11-25T02:35:25.625Z,2.28
2022-11-25T02:37:53.887Z,2.23
2022-11-25T02:40:20.563Z,2.21
2022-11-25T02:42:49.907Z,2.26
2022-11-25T02:45:17.905Z,2.23
2022-11-25T02:47:44.460Z,2.25
2022-11-25T02:50:13.677Z,2.16
2022-11-25T02:52:40.262Z,2.12
2022-11-25T02:55:07.093Z,2.11
2022-11-25T02:57:33.668Z,2.10
2022-11-25T03:00:00.272Z,2.11
2022-11-25T03:02:26.904Z,2.22
2022-11-25T03:04:53.512Z,2.12
2022-11-25T03:07:20.095Z,2.16
2022-11-25T03:09:46.829Z,2.19
2022-11-25T03:12:19.304Z,2.08
2022-11-25T03:14:46.047Z,2.09
2022-11-25T03:17:12.727Z,2.05
2022-11-25T03:19:39.603Z,2.09
2022-11-25T03:22:06.235Z,2.12
2022-11-25T03:24:33.729Z,2.29
2022-11-25T03:27:00.459Z,2.19
2022-11-25T03:29:27.098Z,2.12
2022-11-25T03:31:53.774Z,2.12
2022-11-25T03:34:20.427Z,2.19
2022-11-25T03:36:47.099Z,2.14
2022-11-25T03:39:13.782Z,2.17
2022-11-25T03:41:40.443Z,2.26
2022-11-25T03:44:07.105Z,2.20
2022-11-25T03:46:33.797Z,2.19
2022-11-25T03:49:00.425Z,2.19
2022-11-25T03:51:27.057Z,2.22
2022-11-25T03:53:53.822Z,2.18
2022-11-25T03:56:20.510Z,2.14
2022-11-25T03:58:48.378Z,2.24
2022-11-25T04:01:15.071Z,2.22
2022-11-25T04:03:41.786Z,2.21
2022-11-25T04:06:08.478Z,2.18
2022-11-25T04:08:35.182Z,2.41
2022-11-25T04:11:01.965Z,2.21
2022-11-25T04:13:29.027Z,2.41
2022-11-25T04:15:55.800Z,2.25
2022-11-25T04:18:22.480Z,2.22
2022-11-25T04:20:49.124Z,2.22
2022-11-25T04:23:15.840Z,2.25
2022-11-25T04:25:42.624Z,2.26
2022-11-25T04:28:09.295Z,2.28
2022-11-25T04:30:37.258Z,2.26
2022-11-25T04:33:03.890Z,2.26
2022-11-25T04:35:30.529Z,2.28
2022-11-25T04:37:57.268Z,2.28
2022-11-25T04:40:23.880Z,2.21
2022-11-25T04:42:50.531Z,2.25
2022-11-25T04:45:25.171Z,2.27
2022-11-25T04:47:52.015Z,2.19
2022-11-25T04:50:21.271Z,2.20
2022-11-25T04:52:48.011Z,2.23
2022-11-25T04:55:14.584Z,2.19
2022-11-25T04:57:41.191Z,2.19
2022-11-25T05:00:09.445Z,2.39
2022-11-25T05:02:36.152Z,2.42
2022-11-25T05:05:03.541Z,2.30
2022-11-25T05:07:30.240Z,2.21
2022-11-25T05:09:56.898Z,2.20
2022-11-25T05:12:26.521Z,2.23
2022-11-25T05:14:53.526Z,2.21
2022-11-25T05:17:22.397Z,2.23
2022-11-25T05:19:49.903Z,2.38
2022-11-25T05:22:19.037Z,2.39
2022-11-25T05:24:45.640Z,2.28
2022-11-25T05:27:12.285Z,2.28
2022-11-25T05:29:39.126Z,2.34
2022-11-25T05:32:06.442Z,2.28
2022-11-25T05:34:33.178Z,2.24
2022-11-25T05:36:59.943Z,2.23
2022-11-25T05:39:26.609Z,2.24
2022-11-25T05:41:53.289Z,2.21
2022-11-25T05:44:23.091Z,2.19
2022-11-25T05:46:50.366Z,2.16
2022-11-25T05:49:18.025Z,2.23
2022-11-25T05:51:44.754Z,2.13
2022-11-25T05:54:11.409Z,2.10
2022-11-25T05:56:38.302Z,2.09
2022-11-25T05:59:06.415Z,2.04
2022-11-25T06:01:33.631Z,2.05
2022-11-25T06:04:01.323Z,2.22
2022-11-25T06:06:28.345Z,2.29
2022-11-25T06:08:55.049Z,2.34
2022-11-25T06:11:22.238Z,2.30
2022-11-25T06:13:49.072Z,2.19
2022-11-25T06:16:21.420Z,2.32
2022-11-25T06:18:48.904Z,2.28
2022-11-25T06:21:15.901Z,2.28
2022-11-25T06:23:44.793Z,2.16
2022-11-25T06:26:17.162Z,2.23
2022-11-25T06:28:44.657Z,2.18
2022-11-25T06:31:17.799Z,2.28
2022-11-25T06:33:49.356Z,2.35
2022-11-25T06:36:19.436Z,2.36
2022-11-25T06:38:48.479Z,2.31
2022-11-25T06:41:15.891Z,2.20
2022-11-25T06:43:42.678Z,2.21
2022-11-25T06:46:12.529Z,2.56
2022-11-25T06:48:39.599Z,2.46
2022-11-25T06:51:11.767Z,2.40
2022-11-25T06:53:39.215Z,2.35
2022-11-25T06:56:13.455Z,2.30
2022-11-25T06:58:41.085Z,2.33
2022-11-25T07:01:12.796Z,2.26
2022-11-25T07:03:39.678Z,2.36
2022-11-25T07:06:06.998Z,2.45
2022-11-25T07:08:34.490Z,2.38
2022-11-25T07:11:11.669Z,2.27
2022-11-25T07:13:38.613Z,2.41
2022-11-25T07:16:06.773Z,2.25
2022-11-25T07:18:35.615Z,2.30
2022-11-25T07:21:24.033Z,2.18
2022-11-25T07:23:51.759Z,2.18
2022-11-25T07:26:26.855Z,2.39
2022-11-25T07:28:54.860Z,2.51
2022-11-25T07:31:31.603Z,2.43
2022-11-25T07:34:04.554Z,2.73
2022-11-25T07:36:32.575Z,2.66
2022-11-25T07:39:00.424Z,2.71
2022-11-25T07:41:27.999Z,2.60
2022-11-25T07:43:56.847Z,2.74
2022-11-25T07:46:32.794Z,2.69
2022-11-25T07:49:02.436Z,2.65
2022-11-25T07:51:32.817Z,2.70
2022-11-25T07:54:01.074Z,2.73
2022-11-25T07:56:28.897Z,2.83
2022-11-25T07:58:56.204Z,2.81
2022-11-25T08:01:23.035Z,2.81
2022-11-25T08:03:50.477Z,2.86
2022-11-25T08:06:22.585Z,2.99
2022-11-25T08:08:50.187Z,3.00
2022-11-25T08:11:19.412Z,3.11
2022-11-25T08:13:46.331Z,3.06
2022-11-25T08:16:15.328Z,3.16
2022-11-25T08:18:42.344Z,3.04
2022-11-25T08:21:10.906Z,3.15
2022-11-25T08:23:39.762Z,3.15
2022-11-25T08:26:09.086Z,3.18
2022-11-25T08:28:36.737Z,3.27
2022-11-25T08:31:05.688Z,3.21
2022-11-25T08:33:32.779Z,3.26
2022-11-25T08:36:00.387Z,3.43
2022-11-25T08:38:28.249Z,3.35
2022-11-25T08:40:55.652Z,3.34
2022-11-25T08:43:27.908Z,3.39
2022-11-25T08:45:56.049Z,3.33
2022-11-25T08:48:22.668Z,3.51
2022-11-25T08:50:52.525Z,3.45
2022-11-25T08:53:20.197Z,3.44
2022-11-25T08:55:48.308Z,3.50
2022-11-25T08:58:14.915Z,3.62
2022-11-25T09:00:42.198Z,3.51
2022-11-25T09:03:09.670Z,3.65
2022-11-25T09:05:40.628Z,3.73
2022-11-25T09:08:09.880Z,3.72
2022-11-25T09:10:39.027Z,3.80
2022-11-25T09:13:05.686Z,3.78
2022-11-25T09:15:32.651Z,3.68
2022-11-25T09:18:03.770Z,3.72
2022-11-25T09:20:32.573Z,3.67
2022-11-25T09:23:00.255Z,3.84
2022-11-25T09:25:27.507Z,3.82
2022-11-25T09:27:55.307Z,3.73
2022-11-25T09:30:22.116Z,3.82
2022-11-25T09:32:50.113Z,3.85
2022-11-25T09:35:17.189Z,3.87
2022-11-25T09:37:43.788Z,3.88
2022-11-25T09:40:19.062Z,3.92
2022-11-25T09:43:08.840Z,3.89
2022-11-25T09:46:14.815Z,3.97
2022-11-25T09:48:56.654Z,3.99
2022-11-25T09:51:30.899Z,4.10
2022-11-25T09:53:58.431Z,3.94
2022-11-25T09:56:27.966Z,4.15
2022-11-25T09:59:03.511Z,4.26
2022-11-25T10:01:31.219Z,4.16
2022-11-25T10:04:13.978Z,4.29
2022-11-25T10:06:54.930Z,4.23
2022-11-25T10:09:25.500Z,4.23
2022-11-25T10:12:06.453Z,4.41
2022-11-25T10:14:40.315Z,4.23
2022-11-25T10:17:09.874Z,4.32
2022-11-25T10:19:54.884Z,4.32
2022-11-25T10:22:32.912Z,4.27
2022-11-25T10:25:12.729Z,4.28
2022-11-25T10:28:05.107Z,4.23
2022-11-25T10:30:39.352Z,4.42
2022-11-25T10:33:22.582Z,4.30
2022-11-25T10:35:52.609Z,4.30
2022-11-25T10:38:42.204Z,4.32
2022-11-25T10:41:13.745Z,4.48
2022-11-25T10:43:41.334Z,4.64
2022-11-25T10:46:20.167Z,4.69
2022-11-25T10:49:15.850Z,4.74
2022-11-25T10:51:50.767Z,4.71
2022-11-25T10:54:27.295Z,4.64
2022-11-25T10:57:05.850Z,4.59
2022-11-25T10:59:35.013Z,4.50
2022-11-25T11:02:25.095Z,4.61
2022-11-25T11:04:53.654Z,4.48
2022-11-25T11:07:20.772Z,4.47
2022-11-25T11:09:48.837Z,4.61
2022-11-25T11:12:24.722Z,4.51
2022-11-25T11:14:52.956Z,4.39
2022-11-25T11:17:36.828Z,4.64
2022-11-25T11:20:25.223Z,4.35
2022-11-25T11:23:07.112Z,4.39
2022-11-25T11:25:37.688Z,4.52
2022-11-25T11:28:24.952Z,4.55
2022-11-25T11:31:01.156Z,4.65
2022-11-25T11:33:41.637Z,4.60
2022-11-25T11:36:46.174Z,4.83
2022-11-25T11:39:21.941Z,4.92
2022-11-25T11:41:55.949Z,4.99
2022-11-25T11:44:53.748Z,4.96
2022-11-25T11:47:27.909Z,5.02
2022-11-25T11:50:22.531Z,4.96
2022-11-25T11:52:57.351Z,5.00
2022-11-25T11:55:33.214Z,4.96
2022-11-25T11:58:28.734Z,5.03
2022-11-25T12:01:34.138Z,5.11
2022-11-25T12:04:17.212Z,5.23
2022-11-25T12:06:46.909Z,5.34
2022-11-25T12:09:17.322Z,5.30
2022-11-25T12:11:47.909Z,5.28
2022-11-25T12:14:40.816Z,5.33
2022-11-25T12:17:13.802Z,5.37
2022-11-25T12:19:59.292Z,5.36
2022-11-25T12:22:58.683Z,5.31
2022-11-25T12:25:36.440Z,5.33
2022-11-25T12:28:26.413Z,5.19
2022-11-25T12:31:07.197Z,5.31
2022-11-25T12:34:01.325Z,5.17
2022-11-25T12:36:40.057Z,5.15
2022-11-25T12:39:24.180Z,5.11
2022-11-25T12:42:02.661Z,5.11
2022-11-25T12:44:34.993Z,5.14
2022-11-25T12:47:02.256Z,5.13
2022-11-25T12:49:31.113Z,5.09
2022-11-25T12:52:08.447Z,5.14
2022-11-25T12:54:54.462Z,5.08
2022-11-25T12:57:44.403Z,5.03
2022-11-25T13:00:43.828Z,5.08
2022-11-25T13:03:29.657Z,5.17
2022-11-25T13:06:10.702Z,5.11
2022-11-25T13:08:57.597Z,5.16
2022-11-25T13:12:13.388Z,5.17
2022-11-25T13:15:18.401Z,4.87
2022-11-25T13:17:46.442Z,4.86
2022-11-25T13:20:28.396Z,5.01
2022-11-25T13:23:13.599Z,4.94
2022-11-25T13:25:42.086Z,5.02
2022-11-25T13:28:34.970Z,4.92
2022-11-25T13:31:13.820Z,4.80
2022-11-25T13:33:43.426Z,5.04
2022-11-25T13:36:25.962Z,4.84
2022-11-25T13:38:52.479Z,4.98
2022-11-25T13:41:56.400Z,4.99
2022-11-25T13:44:30.682Z,4.87
2022-11-25T13:46:58.387Z,4.88
2022-11-25T13:49:51.902Z,4.89
2022-11-25T13:52:18.475Z,4.80
2022-11-25T13:54:55.647Z,4.95
2022-11-25T13:57:26.810Z,4.82
2022-11-25T13:59:55.032Z,4.76
2022-11-25T14:02:27.806Z,4.92
2022-11-25T14:05:31.389Z,4.79
2022-11-25T14:08:33.343Z,4.80
2022-11-25T14:11:31.556Z,4.78
2022-11-25T14:14:36.190Z,4.75
2022-11-25T14:17:28.627Z,4.71
2022-11-25T14:20:05.603Z,4.73
2022-11-25T14:22:33.304Z,4.78
2022-11-25T14:25:22.855Z,4.73
2022-11-25T14:27:56.326Z,4.59
2022-11-25T14:30:25.655Z,4.67
2022-11-25T14:32:59.785Z,4.60
2022-11-25T14:35:33.040Z,4.53
2022-11-25T14:38:07.407Z,4.56
2022-11-25T14:40:38.841Z,4.53
2022-11-25T14:43:20.604Z,4.50
2022-11-25T14:45:47.370Z,4.70
2022-11-25T14:48:21.691Z,4.61
2022-11-25T14:50:55.064Z,4.52
2022-11-25T14:53:21.644Z,4.72
2022-11-25T14:55:49.016Z,4.59
2022-11-25T14:58:16.237Z,4.59
2022-11-25T15:00:58.265Z,4.51
2022-11-25T15:03:25.442Z,4.42
2022-11-25T15:05:57.262Z,4.51
2022-11-25T15:08:25.432Z,4.42
2022-11-25T15:10:58.741Z,4.54
2022-11-25T15:13:30.673Z,4.44
2022-11-25T15:16:05.864Z,4.43
2022-11-25T15:18:34.964Z,4.43
2022-11-25T15:21:02.074Z,4.42
2022-11-25T15:23:32.518Z,4.46
2022-11-25T15:25:59.164Z,4.52
2022-11-25T15:28:25.765Z,4.42
2022-11-25T15:31:00.411Z,4.46
2022-11-25T15:33:28.494Z,4.52
2022-11-25T15:35:55.612Z,4.49
2022-11-25T15:38:37.619Z,4.43
2022-11-25T15:41:05.491Z,4.48
2022-11-25T15:43:32.728Z,4.44
2022-11-25T15:46:04.167Z,4.51
2022-11-25T15:48:39.196Z,4.39
2022-11-25T15:51:19.863Z,4.44
2022-11-25T15:53:52.107Z,4.30
2022-11-25T15:56:21.934Z,4.21
2022-11-25T15:58:48.520Z,4.32
2022-11-25T16:01:15.109Z,4.41
2022-11-25T16:03:41.979Z,4.32
2022-11-25T16:06:25.885Z,4.28
2022-11-25T16:08:54.710Z,4.44
2022-11-25T16:11:23.008Z,4.53
2022-11-25T16:13:52.868Z,4.43
2022-11-25T16:16:24.664Z,4.31
2022-11-25T16:19:06.133Z,4.19
2022-11-25T16:21:35.777Z,4.39
2022-11-25T16:24:08.251Z,4.48
2022-11-25T16:26:52.995Z,4.49
2022-11-25T16:29:33.325Z,4.33
2022-11-25T16:32:01.230Z,4.35
2022-11-25T16:34:28.220Z,4.26
2022-11-25T16:36:55.039Z,4.21
2022-11-25T16:39:21.695Z,4.30
2022-11-25T16:41:55.717Z,4.24
2022-11-25T16:44:24.183Z,4.16
2022-11-25T16:46:51.219Z,4.14
2022-11-25T16:49:19.258Z,4.31
2022-11-25T16:51:45.889Z,4.34
2022-11-25T16:54:12.882Z,4.32
2022-11-25T16:56:41.207Z,4.50
2022-11-25T16:59:29.912Z,4.27
2022-11-25T17:01:57.068Z,4.29
2022-11-25T17:04:23.884Z,4.20
2022-11-25T17:07:16.529Z,4.09
2022-11-25T17:09:37.419Z,4.14
2022-11-25T17:12:05.931Z,4.17
2022-11-25T17:14:34.740Z,4.15
2022-11-25T17:17:02.159Z,4.36
2022-11-25T17:19:30.345Z,4.19
2022-11-25T17:21:57.102Z,4.21
2022-11-25T17:24:25.244Z,4.36
2022-11-25T17:27:00.855Z,4.10
2022-11-25T17:29:40.431Z,4.29
2022-11-25T17:32:07.503Z,4.19
2022-11-25T17:34:38.166Z,4.18
2022-11-25T17:37:15.068Z,4.22
2022-11-25T17:39:41.845Z,4.41
2022-11-25T17:42:13.241Z,4.18
2022-11-25T17:44:40.392Z,4.36
2022-11-25T17:47:11.788Z,4.17
2022-11-25T17:49:38.580Z,4.25
2022-11-25T17:52:05.768Z,4.29
2022-11-25T17:54:32.361Z,4.35
2022-11-25T17:56:59.436Z,4.29
2022-11-25T17:59:31.341Z,4.43
2022-11-25T18:02:00.900Z,4.20
2022-11-25T18:04:36.500Z,4.18
2022-11-25T18:07:03.472Z,4.34
2022-11-25T18:09:30.176Z,4.26
2022-11-25T18:11:59.301Z,4.43
2022-11-25T18:14:28.185Z,4.29
2022-11-25T18:16:55.818Z,4.31
2022-11-25T18:19:22.552Z,4.21
2022-11-25T18:21:49.282Z,4.13
2022-11-25T18:24:15.893Z,4.04
2022-11-25T18:26:48.587Z,4.03
2022-11-25T18:29:17.574Z,4.11
2022-11-25T18:31:46.610Z,4.15
2022-11-25T18:34:15.539Z,4.14
2022-11-25T18:36:43.432Z,4.09
2022-11-25T18:39:12.118Z,4.36
2022-11-25T18:41:39.565Z,4.20
2022-11-25T18:44:07.286Z,4.22
2022-11-25T18:46:37.560Z,4.17
2022-11-25T18:49:14.590Z,4.17
2022-11-25T18:51:42.659Z,4.10
2022-11-25T18:54:09.526Z,4.10
2022-11-25T18:56:37.305Z,4.15
2022-11-25T18:59:04.561Z,4.10
2022-11-25T19:01:31.247Z,4.10
2022-11-25T19:04:00.029Z,4.18
2022-11-25T19:06:29.499Z,4.21
2022-11-25T19:08:56.681Z,4.17
2022-11-25T19:11:29.933Z,4.14
2022-11-25T19:14:20.906Z,4.35
2022-11-25T19:16:47.654Z,4.20
2022-11-25T19:19:17.571Z,4.12
2022-11-25T19:21:44.204Z,4.11
2022-11-25T19:24:16.304Z,4.13
2022-11-25T19:26:49.222Z,4.19
2022-11-25T19:29:21.972Z,4.11
2022-11-25T19:31:50.158Z,4.03
2022-11-25T19:34:24.673Z,4.05
2022-11-25T19:36:51.549Z,3.96
2022-11-25T19:39:19.184Z,4.03
2022-11-25T19:41:46.450Z,4.16
2022-11-25T19:44:14.657Z,4.14
2022-11-25T19:47:16.377Z,4.11
2022-11-25T19:49:38.863Z,4.14
2022-11-25T19:52:05.667Z,4.09
2022-11-25T19:54:33.085Z,4.19
2022-11-25T19:57:00.588Z,4.13
2022-11-25T19:59:27.722Z,4.21
2022-11-25T20:01:54.885Z,4.28
2022-11-25T20:04:22.565Z,4.25
2022-11-25T20:06:49.825Z,4.26
2022-11-25T20:09:17.357Z,4.17
2022-11-25T20:11:44.498Z,4.24
2022-11-25T20:14:12.708Z,4.19
2022-11-25T20:16:41.159Z,4.21
2022-11-25T20:19:14.739Z,4.15
2022-11-25T20:21:41.896Z,4.17
2022-11-25T20:24:14.859Z,4.12
2022-11-25T20:26:46.291Z,4.13
2022-11-25T20:29:27.387Z,4.24
2022-11-25T20:31:57.201Z,4.18
2022-11-25T20:34:25.143Z,4.15
2022-11-25T20:36:52.323Z,4.09
2022-11-25T20:39:20.346Z,4.14
2022-11-25T20:41:49.943Z,4.13
2022-11-25T20:44:16.941Z,4.15
2022-11-25T20:46:43.681Z,4.15
2022-11-25T20:49:29.375Z,4.22
2022-11-25T20:51:56.906Z,4.25
2022-11-25T20:54:26.575Z,4.20
2022-11-25T20:56:53.252Z,4.23
2022-11-25T20:59:21.714Z,4.19
2022-11-25T21:01:50.014Z,4.14
2022-11-25T21:04:18.390Z,4.11
2022-11-25T21:06:45.153Z,4.17
2022-11-25T21:09:21.980Z,4.20
2022-11-25T21:11:48.834Z,4.19
2022-11-25T21:14:17.973Z,4.13
2022-11-25T21:16:45.171Z,4.22
2022-11-25T21:19:12.652Z,4.23
2022-11-25T21:21:41.992Z,4.27
2022-11-25T21:24:25.711Z,4.36
2022-11-25T21:26:52.575Z,4.26
2022-11-25T21:29:19.699Z,4.17
2022-11-25T21:31:46.638Z,4.12
2022-11-25T21:34:14.313Z,4.08
2022-11-25T21:36:42.069Z,4.10
2022-11-25T21:39:29.669Z,4.07
2022-11-25T21:41:58.763Z,4.06
2022-11-25T21:44:31.614Z,4.26
2022-11-25T21:46:58.553Z,4.24
2022-11-25T21:49:26.421Z,4.16
2022-11-25T21:51:53.276Z,4.19
2022-11-25T21:54:20.384Z,4.25
2022-11-25T21:56:47.436Z,4.16
2022-11-25T21:59:18.530Z,4.16
2022-11-25T22:01:46.214Z,4.26
2022-11-25T22:04:15.965Z,4.18
2022-11-25T22:06:46.419Z,4.21
2022-11-25T22:09:16.652Z,4.22
2022-11-25T22:11:46.306Z,4.16
2022-11-25T22:14:42.381Z,4.12
2022-11-25T22:17:17.346Z,4.23
2022-11-25T22:19:45.260Z,4.26
2022-11-25T22:22:16.428Z,4.14
2022-11-25T22:24:43.788Z,4.11
2022-11-25T22:27:25.485Z,4.15
2022-11-25T22:29:55.193Z,4.10
2022-11-25T22:32:22.160Z,4.13
2022-11-25T22:34:48.743Z,4.05
2022-11-25T22:37:20.689Z,4.06
2022-11-25T22:39:48.387Z,4.06
2022-11-25T22:42:27.222Z,4.11
2022-11-25T22:44:55.761Z,4.08
2022-11-25T22:47:30.610Z,4.10
2022-11-25T22:49:57.324Z,4.09
2022-11-25T22:52:35.572Z,4.10
2022-11-25T22:55:30.000Z,4.12
2022-11-25T22:57:58.252Z,4.09
2022-11-25T23:00:28.636Z,4.10
2022-11-25T23:02:57.507Z,4.15
2022-11-25T23:05:33.164Z,4.10
2022-11-25T23:08:14.783Z,4.11
2022-11-25T23:10:44.476Z,4.13
2022-11-25T23:13:13.891Z,4.14
2022-11-25T23:15:45.873Z,4.16
2022-11-25T23:18:17.936Z,4.17
2022-11-25T23:20:50.575Z,4.19
2022-11-25T23:23:19.892Z,4.15
2022-11-25T23:25:46.934Z,4.15
2022-11-25T23:28:14.037Z,4.14
2022-11-25T23:30:54.058Z,4.32
2022-11-25T23:33:45.059Z,4.22
2022-11-25T23:36:22.424Z,4.19
2022-11-25T23:38:59.633Z,4.23
2022-11-25T23:41:29.199Z,4.34
2022-11-25T23:43:59.176Z,4.36
2022-11-25T23:46:36.027Z,4.27
2022-11-25T23:49:03.966Z,4.28
2022-11-25T23:51:31.090Z,4.26
2022-11-25T23:56:51.443Z,4.37
2022-11-25T23:59:38.649Z,4.34
